Time;durP1;ratioP1;P1;durP2;ratioP2;P2;SDS_P1;SDS_P2;PMS_P1;PMS_P2;Temp;Humidity;BMP_temperature;BMP_pressure;BME280_temperature;BME280_humidity;BME280_pressure;Samples;Min_cycle;Max_cycle;Signal;HPM_P1;HPM_P2
2024/01/17 00:03:19;;;;;;;22.30;11.90;;;;;;;-1.12;97.42;99412.43;176507;1264;46165;-86
2024/01/17 00:07:24;;;;;;;24.20;13.50;;;;;;;-1.02;97.10;99411.41;176559;1269;46142;-86
2024/01/17 00:11:28;;;;;;;23.90;14.20;;;;;;;-0.95;96.64;99405.00;176641;1264;46032;-85
2024/01/17 00:15:32;;;;;;;23.30;14.80;;;;;;;-0.92;95.11;99399.79;176588;1265;46153;-85
2024/01/17 00:19:36;;;;;;;21.30;12.60;;;;;;;-0.86;95.26;99394.14;176486;1270;59634;-85
2024/01/17 00:23:41;;;;;;;21.70;14.30;;;;;;;-0.89;94.38;99386.59;176628;1265;45991;-85
2024/01/17 00:27:48;;;;;;;30.80;14.90;;;;;;;-0.88;94.09;99383.77;176603;1266;46044;-85
2024/01/17 00:31:52;;;;;;;24.60;16.20;;;;;;;-0.89;93.96;99378.95;176517;1264;46104;-84
2024/01/17 00:35:56;;;;;;;22.60;12.90;;;;;;;-0.93;94.17;99380.38;176814;1265;46159;-85
2024/01/17 00:40:00;;;;;;;28.70;15.30;;;;;;;-0.95;94.01;99377.35;176817;1264;59385;-85
2024/01/17 00:44:04;;;;;;;30.20;17.30;;;;;;;-0.97;93.88;99369.77;176974;1264;46593;-86
2024/01/17 00:48:08;;;;;;;22.40;14.10;;;;;;;-0.98;93.78;99365.45;177002;1263;46113;-86
2024/01/17 00:52:11;;;;;;;21.00;14.30;;;;;;;-1.01;93.41;99360.54;176585;1263;46040;-86
2024/01/17 00:56:16;;;;;;;25.80;13.20;;;;;;;-1.10;93.11;99360.11;176569;1267;46552;-87
2024/01/17 01:00:20;;;;;;;28.40;12.90;;;;;;;-1.35;93.95;99362.34;176621;1265;57057;-86
2024/01/17 01:04:23;;;;;;;29.40;15.10;;;;;;;-1.59;93.15;99356.52;177399;1265;46076;-85
2024/01/17 01:08:27;;;;;;;30.80;15.80;;;;;;;-1.76;92.91;99352.91;177100;1264;44707;-85
2024/01/17 01:12:32;;;;;;;29.30;18.40;;;;;;;-1.98;92.40;99348.52;176953;1263;46114;-86
2024/01/17 01:16:35;;;;;;;31.80;15.00;;;;;;;-2.22;92.47;99342.46;176337;1265;46577;-86
2024/01/17 01:20:38;;;;;;;24.90;12.80;;;;;;;-2.48;92.08;99338.04;177191;1265;57945;-85
2024/01/17 01:24:42;;;;;;;30.10;13.20;;;;;;;-2.80;91.83;99333.13;176937;1264;46089;-86
2024/01/17 01:28:46;;;;;;;31.40;15.00;;;;;;;-3.12;92.69;99338.75;177106;1263;46127;-86
2024/01/17 01:32:49;;;;;;;26.50;15.30;;;;;;;-3.53;94.77;99343.31;177448;1265;46054;-86
2024/01/17 01:36:53;;;;;;;40.60;16.20;;;;;;;-3.75;96.51;99343.27;176960;1265;46070;-85
2024/01/17 01:40:58;;;;;;;26.60;13.70;;;;;;;-3.87;98.10;99336.98;176713;1267;57979;-86
2024/01/17 01:45:04;;;;;;;26.00;14.50;;;;;;;-3.84;97.56;99331.33;176523;1265;46065;-85
2024/01/17 01:49:09;;;;;;;29.10;15.80;;;;;;;-3.81;96.50;99328.80;176518;1265;46113;-85
2024/01/17 01:53:14;;;;;;;39.30;18.90;;;;;;;-3.95;96.97;99332.77;176653;1263;46142;-85
2024/01/17 01:57:18;;;;;;;37.40;18.90;;;;;;;-4.03;97.94;99334.42;176552;1265;46136;-85
2024/01/17 02:01:23;;;;;;;39.40;19.50;;;;;;;-4.07;97.59;99333.04;176707;1264;59227;-85
2024/01/17 02:05:27;;;;;;;34.70;18.60;;;;;;;-4.22;97.57;99333.92;176475;1265;46119;-85
2024/01/17 02:09:33;;;;;;;21.20;10.30;;;;;;;-4.30;99.67;99333.84;176616;1263;46030;-84
2024/01/17 02:13:37;;;;;;;34.30;18.50;;;;;;;-4.28;99.69;99333.45;176687;1263;46095;-85
2024/01/17 02:17:42;;;;;;;29.90;18.60;;;;;;;-4.27;99.00;99326.30;176799;1264;46260;-84
2024/01/17 02:21:45;;;;;;;32.10;19.70;;;;;;;-4.33;98.77;99323.38;176627;1265;59336;-85
2024/01/17 02:25:54;;;;;;;34.70;20.60;;;;;;;-4.51;97.82;99327.31;176648;1263;46188;-84
2024/01/17 02:29:57;;;;;;;37.20;20.90;;;;;;;-4.69;97.65;99328.13;176365;1264;46018;-84
2024/01/17 02:34:01;;;;;;;38.40;22.20;;;;;;;-4.85;97.12;99323.29;176661;1264;46473;-84
2024/01/17 02:38:07;;;;;;;31.80;20.30;;;;;;;-5.03;97.39;99314.39;176489;1264;46061;-85
2024/01/17 02:42:11;;;;;;;43.00;20.90;;;;;;;-5.18;97.44;99305.16;176257;1265;57266;-85
2024/01/17 02:46:15;;;;;;;37.00;21.50;;;;;;;-5.34;99.83;99298.09;176608;1265;46085;-84
2024/01/17 02:50:18;;;;;;;39.20;15.40;;;;;;;-5.57;99.95;99293.80;176780;1265;46045;-85
2024/01/17 02:54:23;;;;;;;42.80;21.00;;;;;;;-5.86;99.60;99294.86;176933;1265;46102;-85
2024/01/17 02:58:27;;;;;;;48.20;23.10;;;;;;;-6.11;99.65;99286.46;176801;1264;46049;-86
2024/01/17 03:02:32;;;;;;;32.10;19.50;;;;;;;-6.23;100.00;99288.38;176708;1267;58669;-86
2024/01/17 03:06:36;;;;;;;42.40;18.60;;;;;;;-6.29;100.00;99282.86;176472;1270;46037;-85
2024/01/17 03:10:41;;;;;;;44.50;19.70;;;;;;;-6.52;100.00;99282.96;176555;1269;46130;-86
2024/01/17 03:14:44;;;;;;;42.30;19.30;;;;;;;-6.64;100.00;99281.06;176833;1264;46129;-86
2024/01/17 03:18:48;;;;;;;36.70;21.60;;;;;;;-6.68;100.00;99279.11;177184;1263;46145;-85
2024/01/17 03:22:53;;;;;;;32.80;15.20;;;;;;;-6.70;100.00;99272.58;177129;1264;59279;-85
2024/01/17 03:26:57;;;;;;;46.50;21.30;;;;;;;-6.84;100.00;99271.59;176539;1265;46152;-85
2024/01/17 03:31:02;;;;;;;27.90;16.60;;;;;;;-6.91;100.00;99272.96;176752;1265;46215;-85
2024/01/17 03:35:06;;;;;;;39.00;17.20;;;;;;;-6.97;100.00;99274.67;176549;1264;46142;-86
2024/01/17 03:39:10;;;;;;;35.00;18.70;;;;;;;-6.93;100.00;99266.12;176612;1264;46043;-85
2024/01/17 03:43:14;;;;;;;33.20;17.20;;;;;;;-6.81;100.00;99259.59;177024;1265;59568;-85
2024/01/17 03:47:19;;;;;;;41.20;18.00;;;;;;;-6.82;100.00;99259.12;177080;1265;46131;-85
2024/01/17 03:51:22;;;;;;;41.50;20.20;;;;;;;-6.86;100.00;99249.06;176557;1264;46124;-85
2024/01/17 03:55:25;;;;;;;40.10;17.20;;;;;;;-6.87;100.00;99231.65;176518;1264;46065;-85
2024/01/17 03:59:29;;;;;;;29.30;18.00;;;;;;;-6.93;100.00;99215.12;176522;1264;46056;-85
2024/01/17 04:03:32;;;;;;;33.70;18.50;;;;;;;-6.90;100.00;99213.13;176672;1263;59302;-85
2024/01/17 04:07:36;;;;;;;36.60;18.90;;;;;;;-6.86;100.00;99206.29;176703;1264;46229;-85
2024/01/17 04:11:40;;;;;;;46.00;22.30;;;;;;;-6.77;100.00;99193.29;177134;1264;46209;-85
2024/01/17 04:15:44;;;;;;;37.40;19.80;;;;;;;-6.69;100.00;99183.75;176744;1263;46059;-85
2024/01/17 04:19:48;;;;;;;40.70;20.00;;;;;;;-6.79;100.00;99176.95;176820;1264;46157;-86
2024/01/17 04:23:52;;;;;;;31.70;20.40;;;;;;;-6.80;100.00;99172.70;176620;1265;58102;-86
2024/01/17 04:27:56;;;;;;;38.90;22.50;;;;;;;-6.72;100.00;99170.38;176570;1265;46422;-86
2024/01/17 04:32:00;;;;;;;33.50;20.80;;;;;;;-6.62;100.00;99160.77;176659;1264;46168;-85
2024/01/17 04:36:03;;;;;;;32.20;17.30;;;;;;;-6.53;100.00;99158.80;176932;1264;46050;-85
2024/01/17 04:40:08;;;;;;;29.50;17.30;;;;;;;-6.50;100.00;99153.52;177012;1265;46041;-85
2024/01/17 04:44:11;;;;;;;32.80;17.80;;;;;;;-6.55;100.00;99146.23;176545;1265;59262;-86
2024/01/17 04:48:15;;;;;;;47.70;18.40;;;;;;;-6.68;100.00;99138.70;176730;1265;46228;-85
2024/01/17 04:52:19;;;;;;;34.00;16.80;;;;;;;-6.73;100.00;99134.70;176606;1264;46132;-86
2024/01/17 04:56:22;;;;;;;29.40;17.40;;;;;;;-6.68;100.00;99132.00;176557;1267;46308;-86
2024/01/17 05:00:26;;;;;;;32.60;17.20;;;;;;;-6.73;100.00;99130.74;177037;1264;46014;-87
2024/01/17 05:04:29;;;;;;;31.00;17.50;;;;;;;-6.77;100.00;99126.38;177022;1267;58222;-85
2024/01/17 05:08:33;;;;;;;29.80;19.40;;;;;;;-6.84;100.00;99123.14;176746;1265;46010;-86
2024/01/17 05:12:36;;;;;;;32.80;21.90;;;;;;;-6.86;100.00;99119.06;176531;1265;563534;-85
2024/01/17 05:16:40;;;;;;;37.80;18.00;;;;;;;-7.01;100.00;99110.02;176852;1263;46053;-86
2024/01/17 05:20:45;;;;;;;29.90;18.00;;;;;;;-7.19;100.00;99099.66;176986;1265;46132;-88
2024/01/17 05:24:49;;;;;;;26.00;16.40;;;;;;;-7.28;100.00;99095.58;176850;1264;58644;-86
2024/01/17 05:28:52;;;;;;;38.40;18.90;;;;;;;-7.35;100.00;99090.46;176552;1265;46120;-87
2024/01/17 05:32:56;;;;;;;20.90;12.80;;;;;;;-7.44;100.00;99088.28;176572;1267;45974;-86
2024/01/17 05:36:59;;;;;;;32.40;14.30;;;;;;;-7.64;100.00;99084.69;176573;1265;46137;-85
2024/01/17 05:41:05;;;;;;;34.90;18.80;;;;;;;-7.82;100.00;99076.72;176614;1264;46127;-87
2024/01/17 05:45:09;;;;;;;40.30;23.00;;;;;;;-7.86;100.00;99078.52;176802;1265;58280;-87
2024/01/17 05:49:13;;;;;;;52.50;21.20;;;;;;;-7.96;100.00;99072.41;176951;1264;46120;-88
2024/01/17 05:53:16;;;;;;;37.10;18.80;;;;;;;-8.03;100.00;99071.55;176569;1265;45293;-87
2024/01/17 05:57:20;;;;;;;39.90;20.50;;;;;;;-7.99;100.00;99076.27;176771;1265;46120;-87
2024/01/17 06:01:23;;;;;;;28.40;16.50;;;;;;;-7.80;100.00;99068.74;177063;1265;46130;-86
2024/01/17 06:05:27;;;;;;;27.60;13.90;;;;;;;-7.67;100.00;99068.23;176676;1263;58566;-87
2024/01/17 06:09:31;;;;;;;35.40;18.10;;;;;;;-7.58;100.00;99061.43;176735;1264;46003;-86
2024/01/17 06:13:35;;;;;;;37.00;19.70;;;;;;;-7.37;100.00;99053.46;176823;1264;46148;-87
2024/01/17 06:17:38;;;;;;;42.90;21.30;;;;;;;-7.19;99.94;99050.73;176693;1265;46255;-87
2024/01/17 06:21:42;;;;;;;32.80;19.80;;;;;;;-7.12;99.90;99043.63;176652;1265;45132;-87
2024/01/17 06:25:46;;;;;;;35.20;18.10;;;;;;;-7.05;100.00;99038.08;177213;1265;60188;-87
2024/01/17 06:29:49;;;;;;;32.80;16.70;;;;;;;-6.94;100.00;99031.70;177093;1267;46134;-86
2024/01/17 06:33:54;;;;;;;25.70;15.40;;;;;;;-6.74;100.00;99025.92;176906;1263;46248;-87
2024/01/17 06:37:57;;;;;;;30.50;16.90;;;;;;;-6.56;100.00;99018.98;176854;1264;46126;-86
2024/01/17 06:42:01;;;;;;;25.10;16.10;;;;;;;-6.72;100.00;99015.52;176786;1265;46145;-87
2024/01/17 06:46:05;;;;;;;27.30;16.30;;;;;;;-6.89;100.00;99004.16;177373;1264;58254;-83
2024/01/17 06:50:09;;;;;;;64.50;26.40;;;;;;;-7.00;100.00;98998.79;177064;1264;46126;-87
2024/01/17 06:54:13;;;;;;;57.30;25.60;;;;;;;-7.03;100.00;98999.05;176635;1265;46153;-86
2024/01/17 06:58:17;;;;;;;105.50;42.40;;;;;;;-7.10;100.00;98996.66;176320;1263;46433;-87
2024/01/17 07:02:20;;;;;;;124.30;51.90;;;;;;;-7.22;100.00;98986.39;176859;1267;46121;-86
2024/01/17 07:06:25;;;;;;;77.60;34.20;;;;;;;-7.14;100.00;98981.65;176475;1265;59245;-87
2024/01/17 07:10:28;;;;;;;67.90;27.10;;;;;;;-7.14;100.00;98975.10;176659;1265;46119;-86
2024/01/17 07:14:32;;;;;;;73.30;29.30;;;;;;;-7.09;100.00;98965.65;177140;1264;46113;-87
2024/01/17 07:18:36;;;;;;;49.80;25.10;;;;;;;-7.09;100.00;98957.53;177184;1267;46096;-87
2024/01/17 07:22:42;;;;;;;45.90;21.90;;;;;;;-7.12;99.93;98956.44;176828;1269;46129;-86
2024/01/17 07:26:46;;;;;;;117.30;52.70;;;;;;;-7.19;100.00;98948.86;176748;1264;59717;-86
2024/01/17 07:30:49;;;;;;;36.90;21.40;;;;;;;-7.02;100.00;98935.27;176807;1265;46008;-87
2024/01/17 07:34:53;;;;;;;35.80;16.80;;;;;;;-6.93;100.00;98931.55;176644;1265;46019;-87
2024/01/17 07:38:56;;;;;;;30.00;13.90;;;;;;;-6.87;100.00;98921.02;176523;1263;46234;-87
2024/01/17 07:43:00;;;;;;;48.40;29.20;;;;;;;-6.81;100.00;98911.16;176415;1263;45982;-87
2024/01/17 07:47:04;;;;;;;37.30;23.10;;;;;;;-6.57;100.00;98892.27;176447;1263;58302;-86
2024/01/17 07:51:08;;;;;;;52.60;28.10;;;;;;;-6.31;99.67;98880.33;176426;1265;46031;-87
2024/01/17 07:55:11;;;;;;;37.30;20.70;;;;;;;-6.18;96.62;98871.27;176566;1269;46430;-87
2024/01/17 07:59:15;;;;;;;37.50;18.00;;;;;;;-6.03;95.56;98876.41;176710;1264;46232;-86
2024/01/17 08:03:18;;;;;;;41.60;25.00;;;;;;;-5.88;93.90;98869.61;176619;1265;46017;-85
2024/01/17 08:07:24;;;;;;;92.10;44.70;;;;;;;-5.79;93.54;98861.86;177027;1265;58714;-85
2024/01/17 08:11:28;;;;;;;52.30;34.80;;;;;;;-5.66;93.78;98852.39;176740;1264;45811;-87
2024/01/17 08:15:32;;;;;;;34.20;21.20;;;;;;;-5.46;93.49;98834.17;176649;1263;46562;-86
2024/01/17 08:19:36;;;;;;;42.30;25.70;;;;;;;-5.31;92.75;98824.61;176764;1267;46103;-87
2024/01/17 08:23:40;;;;;;;36.80;21.30;;;;;;;-5.17;92.00;98818.02;176718;1263;45960;-87
2024/01/17 08:27:43;;;;;;;32.60;17.10;;;;;;;-4.97;92.13;98820.14;176687;1264;58260;-87
2024/01/17 08:31:47;;;;;;;28.90;19.30;;;;;;;-4.86;89.44;98812.59;176425;1265;46114;-87
2024/01/17 08:35:50;;;;;;;45.70;24.40;;;;;;;-4.84;88.67;98806.98;176303;1265;46026;-87
2024/01/17 08:39:54;;;;;;;40.10;17.90;;;;;;;-4.83;88.83;98791.88;176725;1265;46539;-87
2024/01/17 08:43:57;;;;;;;29.50;14.20;;;;;;;-4.72;89.15;98777.92;176891;1265;46471;-87
2024/01/17 08:48:03;;;;;;;33.10;15.60;;;;;;;-4.58;89.73;98780.61;176809;1265;58401;-87
2024/01/17 08:52:07;;;;;;;41.10;21.60;;;;;;;-4.68;90.05;98769.60;177079;1267;46102;-87
2024/01/17 08:56:12;;;;;;;47.40;21.30;;;;;;;-4.54;89.45;98763.32;177130;1265;46123;-87
2024/01/17 09:00:16;;;;;;;49.10;25.20;;;;;;;-4.47;90.08;98756.92;177239;1265;46135;-87
2024/01/17 09:04:20;;;;;;;32.60;18.00;;;;;;;-4.27;90.24;98745.65;176991;1265;46029;-87
2024/01/17 09:08:23;;;;;;;35.00;19.10;;;;;;;-4.20;90.86;98734.60;176769;1265;57215;-88
2024/01/17 09:12:27;;;;;;;36.60;22.60;;;;;;;-3.84;90.53;98721.88;176552;1265;46858;-87
2024/01/17 09:16:33;;;;;;;48.00;30.90;;;;;;;-3.49;89.78;98712.19;176772;1265;45393;-86
2024/01/17 09:20:37;;;;;;;43.90;26.40;;;;;;;-3.16;88.53;98701.91;176499;1265;46417;-87
2024/01/17 09:24:41;;;;;;;41.70;22.00;;;;;;;-2.82;88.00;98690.66;176530;1265;45964;-87
2024/01/17 09:28:44;;;;;;;43.80;24.60;;;;;;;-2.57;87.00;98682.41;176359;1265;58137;-88
2024/01/17 09:32:48;;;;;;;36.60;22.90;;;;;;;-2.35;86.68;98682.09;176446;1264;46040;-87
2024/01/17 09:36:52;;;;;;;39.10;23.20;;;;;;;-1.96;86.19;98676.70;176956;1265;45968;-87
2024/01/17 09:40:56;;;;;;;30.00;20.00;;;;;;;-1.90;84.37;98662.77;177153;1265;46121;-87
2024/01/17 09:45:00;;;;;;;34.70;21.30;;;;;;;-1.99;83.72;98647.64;177071;1265;46027;-88
2024/01/17 09:49:06;;;;;;;26.60;19.90;;;;;;;-1.99;84.21;98629.76;176687;1265;59628;-85
2024/01/17 09:53:15;;;;;;;29.40;16.60;;;;;;;-2.13;84.81;98620.10;176728;1265;46051;-87
2024/01/17 09:57:23;;;;;;;42.40;18.40;;;;;;;-2.11;85.64;98613.73;176600;1265;46124;-86
2024/01/17 10:01:30;;;;;;;42.40;21.00;;;;;;;-2.06;86.28;98598.20;176948;1265;46030;-86
2024/01/17 10:05:34;;;;;;;36.20;22.90;;;;;;;-1.91;85.65;98593.71;176923;1265;45913;-87
2024/01/17 10:09:40;;;;;;;39.60;22.00;;;;;;;-1.67;84.55;98587.77;176551;1265;59111;-87
2024/01/17 10:13:43;;;;;;;39.40;23.50;;;;;;;-1.54;83.34;98584.98;176823;1264;46008;-87
2024/01/17 10:17:47;;;;;;;38.00;24.80;;;;;;;-1.39;82.95;98575.74;176652;1265;46101;-87
2024/01/17 10:21:53;;;;;;;41.40;21.00;;;;;;;-1.34;82.70;98569.67;176650;1265;45988;-87
2024/01/17 10:25:56;;;;;;;42.70;26.40;;;;;;;-1.19;82.38;98565.34;176727;1265;46131;-86
2024/01/17 10:30:00;;;;;;;48.10;26.00;;;;;;;-1.11;81.45;98545.00;177138;1265;59593;-87
2024/01/17 10:34:04;;;;;;;49.60;26.90;;;;;;;-0.99;81.14;98533.48;176724;1267;46136;-87
2024/01/17 10:38:08;;;;;;;43.30;27.10;;;;;;;-0.99;80.65;98524.13;176697;1265;46098;-86
2024/01/17 10:42:22;;;;;;;42.20;26.10;;;;;;;-0.95;80.69;98518.27;176777;1265;45985;-86
2024/01/17 10:46:26;;;;;;;42.40;23.90;;;;;;;-0.93;81.45;98508.72;176676;1265;46047;-87
2024/01/17 10:50:29;;;;;;;57.20;29.70;;;;;;;-0.79;81.50;98502.30;176694;1265;59565;-87
2024/01/17 10:55:04;;;;;;;59.50;31.90;;;;;;;-0.58;80.36;98493.52;176750;1265;46122;-86
2024/01/17 10:59:11;;;;;;;90.10;45.90;;;;;;;-0.53;79.06;98487.45;176557;1267;46146;-87
2024/01/17 11:03:19;;;;;;;78.60;40.90;;;;;;;-0.62;79.06;98476.34;176490;1267;46082;-86
2024/01/17 11:07:24;;;;;;;58.00;32.70;;;;;;;-0.79;79.54;98468.54;176608;1265;45968;-86
2024/01/17 11:11:29;;;;;;;63.20;34.80;;;;;;;-0.89;79.89;98463.61;176689;1265;58263;-86
2024/01/17 11:15:34;;;;;;;80.20;39.70;;;;;;;-1.02;79.72;98446.48;176656;1265;45360;-86
2024/01/17 11:19:40;;;;;;;73.30;37.70;;;;;;;-1.19;80.19;98436.27;177347;1265;46037;-85
2024/01/17 11:23:58;;;;;;;80.30;44.70;;;;;;;-1.25;81.55;98419.60;177010;1265;46114;-85
2024/01/17 11:28:06;;;;;;;131.30;69.90;;;;;;;-1.20;81.90;98416.47;176773;1265;46007;-86
2024/01/17 11:32:15;;;;;;;94.70;51.80;;;;;;;-1.10;82.07;98409.97;176519;1265;59890;-84
2024/01/17 11:36:42;;;;;;;63.90;35.30;;;;;;;-1.07;82.49;98400.36;176710;1269;46152;-86
2024/01/17 11:40:45;;;;;;;85.30;44.40;;;;;;;-1.16;84.15;98389.27;176504;1265;46152;-85
2024/01/17 11:44:51;;;;;;;61.80;39.80;;;;;;;-0.98;83.95;98378.70;176446;1264;46024;-85
2024/01/17 11:49:14;;;;;;;76.90;36.80;;;;;;;-0.72;83.23;98366.24;176554;1265;44094;-86
2024/01/17 11:53:23;;;;;;;59.60;34.60;;;;;;;-0.56;82.17;98357.38;176783;1265;58228;-85
2024/01/17 11:57:28;;;;;;;69.20;28.00;;;;;;;-0.43;81.79;98345.70;176813;1265;46018;-85
2024/01/17 12:01:31;;;;;;;66.80;33.00;;;;;;;-0.36;81.42;98336.36;176512;1269;46151;-86
2024/01/17 12:05:37;;;;;;;37.90;22.60;;;;;;;-0.46;80.93;98326.05;176950;1264;46014;-85
2024/01/17 12:09:41;;;;;;;61.50;30.90;;;;;;;-0.64;82.05;98319.41;176787;1267;45992;-86
2024/01/17 12:13:47;;;;;;;39.20;24.10;;;;;;;-0.79;83.97;98309.06;177441;1265;59566;-84
2024/01/17 12:17:51;;;;;;;46.00;24.00;;;;;;;-1.00;84.79;98291.67;176765;1265;45997;-86
2024/01/17 12:21:54;;;;;;;37.70;23.60;;;;;;;-1.11;85.55;98281.92;176838;1265;46147;-87
2024/01/17 12:25:59;;;;;;;31.40;19.00;;;;;;;-1.11;86.31;98274.80;176527;1265;46111;-85
2024/01/17 12:30:04;;;;;;;54.80;27.80;;;;;;;-1.09;86.81;98273.98;176709;1264;46002;-87
2024/01/17 12:34:10;;;;;;;40.30;22.00;;;;;;;-0.99;86.07;98261.52;176350;1265;57940;-86
2024/01/17 12:38:14;;;;;;;36.70;19.20;;;;;;;-0.99;85.60;98247.23;176936;1264;46046;-86
2024/01/17 12:42:18;;;;;;;43.10;25.80;;;;;;;-0.93;86.25;98242.64;176376;1263;46003;-86
2024/01/17 12:46:23;;;;;;;41.90;24.50;;;;;;;-0.80;85.70;98233.45;176746;1265;46120;-87
2024/01/17 12:50:27;;;;;;;58.60;26.90;;;;;;;-0.77;84.74;98219.66;178266;1265;46014;-85
2024/01/17 12:54:31;;;;;;;44.10;26.10;;;;;;;-0.73;84.30;98211.70;179855;1265;58230;-86
2024/01/17 12:58:34;;;;;;;44.50;25.80;;;;;;;-0.68;84.53;98206.40;176849;1269;46313;-86
2024/01/17 13:02:37;;;;;;;51.30;26.30;;;;;;;-0.62;84.51;98197.58;176756;1265;46009;-86
2024/01/17 13:06:45;;;;;;;35.70;23.10;;;;;;;-0.56;84.89;98191.27;176889;1267;46130;-86
2024/01/17 13:10:52;;;;;;;48.10;27.40;;;;;;;-0.51;84.71;98182.38;176798;1267;46080;-87
2024/01/17 13:14:57;;;;;;;38.30;22.60;;;;;;;-0.62;85.35;98166.90;176575;1267;59847;-86
2024/01/17 13:19:01;;;;;;;42.50;25.80;;;;;;;-0.58;85.80;98156.73;176545;1265;46045;-87
2024/01/17 13:23:05;;;;;;;38.30;22.60;;;;;;;-0.50;86.17;98147.66;176775;1265;45960;-86
2024/01/17 13:27:08;;;;;;;56.10;29.40;;;;;;;-0.41;86.38;98138.48;176551;1266;46132;-86
2024/01/17 13:31:12;;;;;;;70.30;35.80;;;;;;;-0.33;87.23;98127.48;176248;1266;46516;-85
2024/01/17 13:35:16;;;;;;;84.40;41.30;;;;;;;-0.28;87.49;98120.02;176874;1267;58291;-86
2024/01/17 13:39:25;;;;;;;90.20;48.30;;;;;;;-0.19;87.51;98112.92;176636;1265;44282;-86
2024/01/17 13:43:29;;;;;;;79.40;46.70;;;;;;;-0.07;87.15;98107.71;176735;1265;46141;-85
2024/01/17 13:47:32;;;;;;;49.20;26.80;;;;;;;-0.04;87.25;98101.92;177230;1267;46125;-87
2024/01/17 13:51:43;;;;;;;56.10;26.90;;;;;;;0.00;87.44;98096.52;176791;1264;46037;-87
2024/01/17 13:55:59;;;;;;;60.20;31.70;;;;;;;0.00;87.60;98086.44;176826;1267;59756;-85
2024/01/17 14:00:02;;;;;;;61.80;32.50;;;;;;;0.11;87.42;98072.56;176586;1264;46124;-87
2024/01/17 14:04:06;;;;;;;58.00;30.80;;;;;;;0.23;86.65;98071.73;178191;1264;45916;-82
2024/01/17 14:08:12;;;;;;;43.00;24.00;;;;;;;0.29;86.24;98064.98;179871;1264;92591;-65
2024/01/17 14:12:16;;;;;;;43.30;27.10;;;;;;;0.33;86.74;98054.89;179364;1265;46332;-65
2024/01/17 14:16:20;;;;;;;42.70;23.00;;;;;;;0.39;86.77;98045.23;179164;1264;57990;-65
2024/01/17 14:20:23;;;;;;;41.80;21.90;;;;;;;0.41;87.32;98038.98;179229;1265;46094;-62
2024/01/17 14:24:27;;;;;;;43.50;25.50;;;;;;;0.43;87.89;98034.83;179308;1265;43819;-67
2024/01/17 14:28:30;;;;;;;42.40;21.20;;;;;;;0.47;87.94;98024.38;179353;1267;46065;-67
2024/01/17 14:32:34;;;;;;;36.50;18.50;;;;;;;0.44;88.60;98016.10;179435;1265;46104;-67
2024/01/17 14:36:38;;;;;;;33.10;16.90;;;;;;;0.44;89.37;98014.67;179250;1265;58651;-66
2024/01/17 14:40:41;;;;;;;50.80;27.40;;;;;;;0.42;89.07;98005.39;179342;1265;45999;-66
2024/01/17 14:44:46;;;;;;;45.50;28.60;;;;;;;0.46;88.68;97996.20;179447;1265;46069;-66
2024/01/17 14:48:49;;;;;;;45.70;29.50;;;;;;;0.43;88.65;97996.60;179372;1265;43556;-66
2024/01/17 14:52:54;;;;;;;37.80;19.70;;;;;;;0.43;88.53;97992.45;179415;1265;46088;-66
2024/01/17 14:57:00;;;;;;;71.30;34.40;;;;;;;0.27;89.36;97983.55;179381;1265;59302;-66
2024/01/17 15:01:04;;;;;;;66.30;35.40;;;;;;;0.20;90.43;97975.88;179464;1265;43601;-66
2024/01/17 15:05:08;;;;;;;45.60;22.80;;;;;;;0.16;90.87;97973.23;179253;1263;44102;-67
2024/01/17 15:09:16;;;;;;;37.10;20.80;;;;;;;0.15;90.83;97973.63;179437;1263;44996;-67
2024/01/17 15:13:21;;;;;;;40.50;20.40;;;;;;;0.17;90.55;97972.94;179780;1263;43692;-67
2024/01/17 15:17:27;;;;;;;31.40;20.30;;;;;;;0.20;90.44;97964.36;179860;1265;58861;-67
2024/01/17 15:21:31;;;;;;;30.40;20.50;;;;;;;0.25;90.73;97962.41;179379;1265;45946;-67
2024/01/17 15:25:35;;;;;;;35.50;21.70;;;;;;;0.28;90.76;97957.09;179547;1263;45955;-67
2024/01/17 15:29:44;;;;;;;45.60;22.50;;;;;;;0.29;90.90;97956.19;179462;1264;44952;-67
2024/01/17 15:33:48;;;;;;;40.90;22.30;;;;;;;0.30;91.14;97950.71;179503;1263;45998;-67
2024/01/17 15:37:52;;;;;;;34.60;21.70;;;;;;;0.24;90.73;97948.15;179384;1264;58596;-67
2024/01/17 15:41:58;;;;;;;42.50;22.10;;;;;;;0.23;91.40;97941.68;179527;1264;45915;-67
2024/01/17 15:46:03;;;;;;;49.00;26.90;;;;;;;0.14;93.48;97931.48;179320;1263;44757;-66
2024/01/17 15:50:15;;;;;;;39.70;22.50;;;;;;;0.17;94.44;97936.20;179354;1263;46137;-66
2024/01/17 15:54:19;;;;;;;42.00;25.10;;;;;;;0.26;93.68;97929.40;179355;1264;46027;-67
2024/01/17 15:58:24;;;;;;;84.40;40.90;;;;;;;0.26;94.46;97914.73;179350;1264;58033;-67
2024/01/17 16:02:29;;;;;;;54.50;29.80;;;;;;;0.13;95.15;97903.50;179384;1263;44658;-67
2024/01/17 16:06:35;;;;;;;74.30;34.90;;;;;;;0.08;93.94;97891.53;179362;1264;46251;-66
2024/01/17 16:10:38;;;;;;;98.70;40.30;;;;;;;0.06;93.74;97888.59;179308;1264;45904;-66
2024/01/17 16:14:42;;;;;;;74.20;40.70;;;;;;;0.11;93.18;97878.93;179409;1265;45979;-66
2024/01/17 16:18:50;;;;;;;63.20;33.80;;;;;;;0.13;92.76;97874.77;179504;1264;58923;-67
2024/01/17 16:22:53;;;;;;;58.80;28.50;;;;;;;0.22;91.89;97863.23;179481;1264;45981;-66
2024/01/17 16:26:57;;;;;;;45.90;28.30;;;;;;;0.25;92.14;97855.35;179527;1263;44902;-66
2024/01/17 16:31:08;;;;;;;51.10;32.30;;;;;;;0.21;92.93;97846.58;179442;1264;45947;-66
2024/01/17 16:35:11;;;;;;;49.10;31.30;;;;;;;0.11;94.15;97832.00;179485;1263;43898;-65
2024/01/17 16:39:17;;;;;;;60.90;30.40;;;;;;;0.10;94.45;97824.08;179841;1264;58287;-65
2024/01/17 16:43:31;;;;;;;67.00;36.50;;;;;;;0.01;96.59;97813.48;179838;1265;46132;-65
2024/01/17 16:47:37;;;;;;;69.80;40.80;;;;;;;-0.18;99.58;97807.80;179422;1265;44134;-65
2024/01/17 16:51:41;;;;;;;152.20;75.10;;;;;;;-0.26;100.00;97800.02;179286;1264;45910;-65
2024/01/17 16:55:44;;;;;;;62.80;41.10;;;;;;;-0.15;100.00;97795.89;179338;1263;44574;-65
2024/01/17 16:59:55;;;;;;;55.30;31.40;;;;;;;-0.01;100.00;97787.48;179302;1264;60158;-65
2024/01/17 17:03:58;;;;;;;67.50;32.70;;;;;;;0.04;100.00;97779.44;179429;1263;46008;-61
2024/01/17 17:08:02;;;;;;;50.20;31.60;;;;;;;0.18;100.00;97767.18;179571;1262;44546;-64
2024/01/17 17:12:31;;;;;;;53.70;32.70;;;;;;;0.38;100.00;97758.28;179746;1263;45997;-64
2024/01/17 17:16:35;;;;;;;41.50;29.80;;;;;;;0.65;100.00;97749.29;179331;1267;45157;-61
2024/01/17 17:20:39;;;;;;;32.80;22.80;;;;;;;0.88;100.00;97735.23;179562;1263;58478;-62
2024/01/17 17:25:06;;;;;;;54.40;32.30;;;;;;;1.11;100.00;97736.87;179724;1264;43657;-61
2024/01/17 17:29:11;;;;;;;;;;;;;;;1.28;100.00;97734.40;179719;1263;45035;-62
2024/01/17 17:33:14;;;;;;;32.00;19.50;;;;;;;1.45;100.00;97733.14;179586;1265;43397;-62
2024/01/17 17:37:18;;;;;;;39.50;23.70;;;;;;;1.60;100.00;97729.41;179741;1265;45941;-61
2024/01/17 17:41:51;;;;;;;32.50;20.40;;;;;;;1.74;100.00;97724.08;179840;1264;58024;-62
2024/01/17 17:45:54;;;;;;;33.70;20.90;;;;;;;1.82;100.00;97715.52;179979;1264;44927;-60
2024/01/17 17:50:11;;;;;;;42.10;23.50;;;;;;;1.91;100.00;97707.60;179666;1264;46049;-63
2024/01/17 17:54:15;;;;;;;40.40;22.10;;;;;;;1.99;100.00;97701.80;179736;1265;43703;-62
2024/01/17 17:58:19;;;;;;;32.30;22.70;;;;;;;2.03;100.00;97689.58;179632;1263;46055;-61
2024/01/17 18:02:22;;;;;;;39.20;23.60;;;;;;;2.03;100.00;97688.36;179735;1263;58932;-60
2024/01/17 18:06:26;;;;;;;38.40;23.10;;;;;;;2.11;100.00;97678.57;179670;1264;43911;-62
2024/01/17 18:10:31;;;;;;;36.60;23.80;;;;;;;2.12;100.00;97668.08;179916;1264;43806;-62
2024/01/17 18:15:37;;;;;;;25.30;18.20;;;;;;;2.09;100.00;97662.08;179908;1263;44577;-63
2024/01/17 18:19:40;;;;;;;36.30;21.60;;;;;;;2.18;100.00;97646.10;179847;1264;45254;-61
2024/01/17 18:23:54;;;;;;;35.70;23.10;;;;;;;2.19;100.00;97629.83;179717;1265;57966;-61
2024/01/17 18:27:58;;;;;;;32.90;21.50;;;;;;;2.20;100.00;97621.68;179620;1265;44030;-63
2024/01/17 18:32:02;;;;;;;27.70;17.40;;;;;;;2.19;100.00;97620.88;179653;1263;44687;-61
2024/01/17 18:36:06;;;;;;;29.20;18.10;;;;;;;2.13;100.00;97607.56;179769;1263;45959;-64